createdAt,value
2018-12-12T00:00:02.632Z,88.91
2018-12-12T00:01:02.664Z,89.45
2018-12-12T00:02:02.652Z,89.78
2018-12-12T00:03:02.611Z,89.63
2018-12-12T00:04:02.635Z,89.58
2018-12-12T00:05:02.628Z,89.05
2018-12-12T00:06:02.873Z,88.93
2018-12-12T00:07:02.569Z,88.87
2018-12-12T00:08:02.647Z,89
2018-12-12T00:09:02.550Z,88.73
2018-12-12T00:10:02.642Z,88.99
2018-12-12T00:11:02.670Z,88.98
2018-12-12T00:12:02.572Z,89.01
2018-12-12T00:13:02.592Z,89.21
2018-12-12T00:14:02.737Z,88.98
2018-12-12T00:15:02.594Z,89.33
2018-12-12T00:16:02.682Z,89.33
2018-12-12T00:17:02.523Z,89.31
2018-12-12T00:18:02.645Z,89.08
2018-12-12T00:19:03.387Z,89.11
2018-12-12T00:20:03.019Z,89.3
2018-12-12T00:21:02.550Z,89.47
2018-12-12T00:22:02.573Z,89.39
2018-12-12T00:23:02.798Z,89.14
2018-12-12T00:24:02.885Z,89.18
2018-12-12T00:25:03.021Z,89.45
2018-12-12T00:26:02.734Z,89.21
2018-12-12T00:27:02.497Z,89.27
2018-12-12T00:28:02.839Z,89.18
2018-12-12T00:29:02.678Z,88.7
2018-12-12T00:30:03.335Z,89.18
2018-12-12T00:31:02.529Z,89.16
2018-12-12T00:32:02.664Z,89.29
2018-12-12T00:33:02.618Z,89.16
2018-12-12T00:34:02.823Z,89.23
2018-12-12T00:35:02.669Z,89.39
2018-12-12T00:36:02.617Z,89.32
2018-12-12T00:37:02.553Z,89.28
2018-12-12T00:38:02.512Z,89.37
2018-12-12T00:39:02.742Z,89.23
2018-12-12T00:40:02.754Z,89.26
2018-12-12T00:41:02.743Z,89.46
2018-12-12T00:42:02.505Z,89.34
2018-12-12T00:43:02.587Z,89.41
2018-12-12T00:44:02.630Z,89.25
2018-12-12T00:45:02.590Z,89.18
2018-12-12T00:46:02.492Z,89.18
2018-12-12T00:47:02.599Z,89.04
2018-12-12T00:48:02.737Z,88.97
2018-12-12T00:49:02.555Z,89.01
2018-12-12T00:50:02.743Z,89.03
2018-12-12T00:51:02.595Z,88.99
2018-12-12T00:52:02.635Z,89.07
2018-12-12T00:53:03.051Z,89.02
2018-12-12T00:54:02.649Z,89.16
2018-12-12T00:55:02.515Z,89.23
2018-12-12T00:56:02.642Z,89.24
2018-12-12T00:57:02.620Z,89.22
2018-12-12T00:58:02.506Z,89.4
2018-12-12T00:59:02.741Z,89.52
2018-12-12T01:00:02.738Z,89.75
2018-12-12T01:01:02.589Z,89.35
2018-12-12T01:02:02.512Z,89.49
2018-12-12T01:03:02.763Z,89.26
2018-12-12T01:04:02.495Z,89.31
2018-12-12T01:05:02.606Z,89.11
2018-12-12T01:06:02.745Z,89.21
2018-12-12T01:07:02.604Z,89.41
2018-12-12T01:08:03.041Z,89.57
2018-12-12T01:09:02.907Z,89.45
2018-12-12T01:10:02.754Z,89.65
2018-12-12T01:11:02.721Z,89.76
2018-12-12T01:12:02.694Z,89.54
2018-12-12T01:13:02.768Z,89.39
2018-12-12T01:14:02.760Z,89.42
2018-12-12T01:15:03.302Z,89.58
2018-12-12T01:16:02.590Z,89.58
2018-12-12T01:17:02.733Z,89.43
2018-12-12T01:18:02.555Z,89.6
2018-12-12T01:19:02.552Z,89.75
2018-12-12T01:20:02.503Z,89.45
2018-12-12T01:21:03.272Z,89.64
2018-12-12T01:22:02.600Z,89.69
2018-12-12T01:23:02.509Z,89.58
2018-12-12T01:24:02.883Z,89.85
2018-12-12T01:25:02.507Z,89.84
2018-12-12T01:26:02.577Z,89.71
2018-12-12T01:27:02.527Z,89.63
2018-12-12T01:28:02.708Z,89.55
2018-12-12T01:29:02.923Z,89.58
2018-12-12T01:30:02.677Z,89.79
2018-12-12T01:31:02.457Z,90.39
2018-12-12T01:32:02.492Z,90.77
2018-12-12T01:33:02.541Z,90.63
2018-12-12T01:34:02.544Z,90.32
2018-12-12T01:35:02.438Z,90.13
2018-12-12T01:36:02.491Z,90.16
2018-12-12T01:37:02.538Z,90.14
2018-12-12T01:38:02.472Z,90.06
2018-12-12T01:39:02.479Z,89.95
2018-12-12T01:40:02.512Z,90.05
2018-12-12T01:41:02.439Z,90.27
2018-12-12T01:42:02.441Z,89.95
2018-12-12T01:43:02.443Z,90
2018-12-12T01:44:02.564Z,90.17
2018-12-12T01:45:02.474Z,89.87
2018-12-12T01:46:02.470Z,89.8
2018-12-12T01:47:02.461Z,89.72
2018-12-12T01:48:02.475Z,89.58
2018-12-12T01:49:02.474Z,89.81
2018-12-12T01:50:02.607Z,89.63
2018-12-12T01:51:02.463Z,89.76
2018-12-12T01:52:02.499Z,89.99
2018-12-12T01:53:02.478Z,89.73
2018-12-12T01:54:02.920Z,89.77
2018-12-12T01:55:02.442Z,89.87
2018-12-12T01:56:03.244Z,89.79
2018-12-12T01:57:03.265Z,89.77
2018-12-12T01:58:02.745Z,89.84
2018-12-12T01:59:02.759Z,89.96
2018-12-12T02:00:02.548Z,89.85
2018-12-12T02:01:03.259Z,89.9
2018-12-12T02:02:02.740Z,89.88
2018-12-12T02:03:02.451Z,89.68
2018-12-12T02:04:02.412Z,89.59
2018-12-12T02:05:02.535Z,89.74
2018-12-12T02:06:02.527Z,89.83
2018-12-12T02:07:02.804Z,90.07
2018-12-12T02:08:02.408Z,90.01
2018-12-12T02:09:02.417Z,89.96
2018-12-12T02:10:02.724Z,89.93
2018-12-12T02:11:02.375Z,89.87
2018-12-12T02:12:02.403Z,90.12
2018-12-12T02:13:02.436Z,89.89
2018-12-12T02:14:02.576Z,90.2
2018-12-12T02:15:02.823Z,90.39
2018-12-12T02:16:02.594Z,90.67
2018-12-12T02:17:02.476Z,90.09
2018-12-12T02:18:02.596Z,90.08
2018-12-12T02:19:02.586Z,90.25
2018-12-12T02:20:02.544Z,90.15
2018-12-12T02:21:02.414Z,90.41
2018-12-12T02:22:02.715Z,90.34
2018-12-12T02:23:02.752Z,90.42
2018-12-12T02:24:02.543Z,90.27
2018-12-12T02:25:02.546Z,90.23
2018-12-12T02:26:02.400Z,90.07
2018-12-12T02:27:02.475Z,90.34
2018-12-12T02:28:02.784Z,89.96
2018-12-12T02:29:02.368Z,89.87
2018-12-12T02:30:02.685Z,89.92
2018-12-12T02:31:02.517Z,89.7
2018-12-12T02:32:02.381Z,89.8
2018-12-12T02:33:02.397Z,90
2018-12-12T02:34:02.451Z,90.21
2018-12-12T02:35:02.445Z,90.14
2018-12-12T02:36:02.549Z,90.04
2018-12-12T02:37:02.570Z,90.35
2018-12-12T02:38:02.378Z,89.81
2018-12-12T02:39:02.872Z,89.78
2018-12-12T02:40:02.574Z,89.79
2018-12-12T02:41:02.427Z,89.54
2018-12-12T02:42:02.429Z,89.67
2018-12-12T02:43:02.584Z,89.47
2018-12-12T02:44:02.386Z,89.56
2018-12-12T02:45:02.463Z,89.44
2018-12-12T02:46:02.377Z,89.72
2018-12-12T02:47:02.559Z,89.57
2018-12-12T02:48:02.427Z,89.68
2018-12-12T02:49:02.383Z,89.58
2018-12-12T02:50:02.575Z,89.61
2018-12-12T02:51:02.562Z,89.59
2018-12-12T02:52:02.436Z,89.78
2018-12-12T02:53:02.539Z,89.83
2018-12-12T02:54:02.397Z,89.66
2018-12-12T02:55:02.376Z,90.05
2018-12-12T02:56:02.557Z,89.89
2018-12-12T02:57:02.554Z,89.87
2018-12-12T02:58:02.732Z,90.08
2018-12-12T02:59:02.406Z,89.93
2018-12-12T03:00:02.377Z,89.83
2018-12-12T03:01:02.574Z,89.94
2018-12-12T03:02:02.520Z,89.76
2018-12-12T03:03:02.406Z,89.96
2018-12-12T03:04:02.529Z,90.06
2018-12-12T03:05:03.129Z,90.18
2018-12-12T03:06:03.198Z,90.52
2018-12-12T03:07:02.391Z,90.04
2018-12-12T03:08:02.499Z,90.14
2018-12-12T03:09:02.329Z,90.29
2018-12-12T03:10:02.405Z,90.31
2018-12-12T03:11:02.348Z,90.1
2018-12-12T03:12:02.288Z,90.43
2018-12-12T03:13:02.437Z,90.34
2018-12-12T03:14:02.386Z,90.1
2018-12-12T03:15:02.385Z,90.45
2018-12-12T03:16:02.353Z,90.14
2018-12-12T03:17:02.373Z,90.13
2018-12-12T03:18:02.306Z,89.92
2018-12-12T03:19:02.326Z,89.86
2018-12-12T03:20:02.344Z,89.82
2018-12-12T03:21:02.337Z,89.99
2018-12-12T03:22:02.385Z,89.38
2018-12-12T03:23:02.296Z,89.4
2018-12-12T03:24:02.318Z,89.52
2018-12-12T03:25:02.302Z,89.54
2018-12-12T03:26:02.318Z,89.72
2018-12-12T03:27:02.352Z,89.8
2018-12-12T03:28:02.342Z,89.75
2018-12-12T03:29:02.339Z,89.71
2018-12-12T03:30:03.106Z,89.81
2018-12-12T03:31:02.383Z,89.87
2018-12-12T03:32:02.285Z,89.84
2018-12-12T03:33:02.276Z,90.04
2018-12-12T03:34:02.522Z,89.74
2018-12-12T03:35:02.288Z,89.97
2018-12-12T03:36:02.797Z,89.66
2018-12-12T03:37:02.282Z,90.17
2018-12-12T03:38:02.787Z,89.82
2018-12-12T03:39:02.535Z,89.94
2018-12-12T03:40:02.332Z,89.92
2018-12-12T03:41:02.311Z,89.72
2018-12-12T03:42:02.363Z,90.26
2018-12-12T03:43:02.788Z,89.92
2018-12-12T03:44:02.601Z,89.94
2018-12-12T03:45:03.182Z,89.99
2018-12-12T03:46:02.292Z,89.86
2018-12-12T03:47:02.468Z,90.07
2018-12-12T03:48:02.465Z,90.29
2018-12-12T03:49:02.453Z,90.01
2018-12-12T03:50:02.380Z,90.29
2018-12-12T03:51:03.408Z,89.99
2018-12-12T03:52:02.382Z,90.22
2018-12-12T03:53:02.810Z,90.48
2018-12-12T03:54:02.344Z,90.63
2018-12-12T03:55:02.511Z,90.57
2018-12-12T03:56:02.363Z,90.74
2018-12-12T03:57:02.473Z,90.74
2018-12-12T03:58:02.651Z,90.14
2018-12-12T03:59:02.496Z,89.93
2018-12-12T04:00:02.379Z,90.43
2018-12-12T04:01:02.293Z,90.38
2018-12-12T04:02:02.338Z,90.28
2018-12-12T04:03:02.314Z,90.2
2018-12-12T04:04:02.528Z,90.56
2018-12-12T04:05:02.494Z,90.43
2018-12-12T04:06:02.366Z,90.33
2018-12-12T04:07:02.338Z,90.21
2018-12-12T04:08:02.631Z,90.37
2018-12-12T04:09:02.554Z,90.17
2018-12-12T04:10:02.453Z,90.15
2018-12-12T04:11:02.352Z,89.89
2018-12-12T04:12:02.647Z,89.88
2018-12-12T04:13:02.320Z,89.88
2018-12-12T04:14:02.484Z,89.93
2018-12-12T04:15:02.320Z,90.37
2018-12-12T04:16:02.267Z,90.92
2018-12-12T04:17:02.620Z,90.79
2018-12-12T04:18:02.496Z,90.59
2018-12-12T04:19:02.460Z,90.52
2018-12-12T04:20:02.619Z,90.55
2018-12-12T04:21:02.358Z,90.66
2018-12-12T04:22:02.239Z,90.52
2018-12-12T04:23:02.445Z,90.38
2018-12-12T04:24:02.346Z,90.42
2018-12-12T04:25:02.450Z,90.06
2018-12-12T04:26:02.493Z,90.02
2018-12-12T04:27:02.247Z,90.13
2018-12-12T04:28:02.355Z,90.09
2018-12-12T04:29:02.315Z,90.22
2018-12-12T04:30:02.493Z,89.93
2018-12-12T04:31:02.319Z,89.86
2018-12-12T04:32:02.323Z,89.85
2018-12-12T04:33:02.388Z,89.81
2018-12-12T04:34:03.323Z,89.87
2018-12-12T04:35:02.334Z,89.95
2018-12-12T04:36:02.336Z,90.02
2018-12-12T04:37:02.456Z,90.14
2018-12-12T04:38:02.402Z,89.92
2018-12-12T04:39:02.219Z,90.47
2018-12-12T04:40:02.358Z,90.13
2018-12-12T04:41:02.376Z,90.08
2018-12-12T04:42:02.285Z,89.97
2018-12-12T04:43:02.260Z,89.96
2018-12-12T04:44:02.257Z,90.26
2018-12-12T04:45:02.517Z,90.06
2018-12-12T04:46:02.379Z,90
2018-12-12T04:47:03.400Z,89.83
2018-12-12T04:48:02.392Z,90.17
2018-12-12T04:49:02.201Z,90.15
2018-12-12T04:50:02.202Z,89.96
2018-12-12T04:51:02.480Z,89.96
2018-12-12T04:52:02.210Z,90.44
2018-12-12T04:53:02.221Z,90.18
2018-12-12T04:54:02.260Z,90.29
2018-12-12T04:55:02.358Z,90.3
2018-12-12T04:56:02.211Z,90.23
2018-12-12T04:57:02.328Z,90.37
2018-12-12T04:58:02.896Z,89.94
2018-12-12T04:59:02.273Z,89.92
2018-12-12T05:00:02.596Z,90.06
2018-12-12T05:01:02.274Z,90.11
2018-12-12T05:02:02.331Z,90.16
2018-12-12T05:03:02.646Z,90.06
2018-12-12T05:04:02.138Z,89.72
2018-12-12T05:05:02.227Z,89.72
2018-12-12T05:06:02.259Z,89.84
2018-12-12T05:07:02.221Z,89.74
2018-12-12T05:08:02.112Z,89.77
2018-12-12T05:09:02.127Z,90.01
2018-12-12T05:10:02.152Z,89.92
2018-12-12T05:11:02.286Z,89.92
2018-12-12T05:12:02.947Z,89.8
2018-12-12T05:13:03.491Z,90.05
2018-12-12T05:14:02.419Z,90.22
2018-12-12T05:15:02.399Z,89.99
2018-12-12T05:16:02.248Z,90.12
2018-12-12T05:17:02.338Z,89.99
2018-12-12T05:18:02.366Z,89.87
2018-12-12T05:19:02.211Z,89.9
2018-12-12T05:20:02.173Z,90.08
2018-12-12T05:21:02.179Z,90.01
2018-12-12T05:22:02.124Z,90.15
2018-12-12T05:23:02.265Z,90.06
2018-12-12T05:24:02.304Z,89.79
2018-12-12T05:25:02.235Z,89.89
2018-12-12T05:26:02.168Z,90
2018-12-12T05:27:02.265Z,89.74
2018-12-12T05:28:02.186Z,89.84
2018-12-12T05:29:02.270Z,89.98
2018-12-12T05:30:02.168Z,89.94
2018-12-12T05:31:02.305Z,90.04
2018-12-12T05:32:02.203Z,90.11
2018-12-12T05:33:02.171Z,90.13
2018-12-12T05:34:02.190Z,90.26
2018-12-12T05:35:02.502Z,90.08
2018-12-12T05:36:02.233Z,90.58
2018-12-12T05:37:02.379Z,90.92
2018-12-12T05:38:02.266Z,90.59
2018-12-12T05:39:02.358Z,90.39
2018-12-12T05:40:02.188Z,90.28
2018-12-12T05:41:02.216Z,90.61
2018-12-12T05:42:02.497Z,90.3
2018-12-12T05:43:02.309Z,90.37
2018-12-12T05:44:02.121Z,90.33
2018-12-12T05:45:02.513Z,90.12
2018-12-12T05:46:02.099Z,90.29
2018-12-12T05:47:02.316Z,90.39
2018-12-12T05:48:02.114Z,90.34
2018-12-12T05:49:02.179Z,90.28
2018-12-12T05:50:02.152Z,90.19
2018-12-12T05:51:02.221Z,90.64
2018-12-12T05:52:02.084Z,90.27
2018-12-12T05:53:02.092Z,90.16
2018-12-12T05:54:02.088Z,90.71
2018-12-12T05:55:02.339Z,90.23
2018-12-12T05:56:02.517Z,90.35
2018-12-12T05:57:02.279Z,90.15
2018-12-12T05:58:02.082Z,90.06
2018-12-12T05:59:02.101Z,90.37
2018-12-12T06:00:02.133Z,90.37
2018-12-12T06:01:02.084Z,90.37
2018-12-12T06:02:02.190Z,90.38
2018-12-12T06:03:02.086Z,90.45
2018-12-12T06:04:02.263Z,90.47
2018-12-12T06:05:02.421Z,90.65
2018-12-12T06:06:02.151Z,90.52
2018-12-12T06:07:02.202Z,90.7
2018-12-12T06:08:02.455Z,90.76
2018-12-12T06:09:02.066Z,90.67
2018-12-12T06:10:02.166Z,91.49
2018-12-12T06:11:02.151Z,91.39
2018-12-12T06:12:02.264Z,91.6
2018-12-12T06:13:02.189Z,91.44
2018-12-12T06:14:02.174Z,91.22
2018-12-12T06:15:02.072Z,90.85
2018-12-12T06:16:02.230Z,90.81
2018-12-12T06:17:02.270Z,90.81
2018-12-12T06:18:02.474Z,90.6
2018-12-12T06:19:02.166Z,90.59
2018-12-12T06:20:02.416Z,90.9
2018-12-12T06:21:02.861Z,90.8
2018-12-12T06:22:06.451Z,90.81
2018-12-12T06:23:02.257Z,90.38
2018-12-12T06:24:02.295Z,90.44
2018-12-12T06:25:02.650Z,90.61
2018-12-12T06:26:02.060Z,90.46
2018-12-12T06:27:02.237Z,90.85
2018-12-12T06:28:02.221Z,90.54
2018-12-12T06:29:02.046Z,90.54
2018-12-12T06:30:02.261Z,90.29
2018-12-12T06:31:02.158Z,90.33
2018-12-12T06:32:02.022Z,89.99
2018-12-12T06:33:02.044Z,89.89
2018-12-12T06:34:02.098Z,89.97
2018-12-12T06:35:02.043Z,90.06
2018-12-12T06:36:02.556Z,90.07
2018-12-12T06:37:02.142Z,89.98
2018-12-12T06:38:02.237Z,89.99
2018-12-12T06:39:02.072Z,90.12
2018-12-12T06:40:02.131Z,90.08
2018-12-12T06:41:02.267Z,90.02
2018-12-12T06:42:02.124Z,89.88
2018-12-12T06:43:02.162Z,89.92
2018-12-12T06:44:02.094Z,89.8
2018-12-12T06:45:02.228Z,89.82
2018-12-12T06:46:02.118Z,89.87
2018-12-12T06:47:02.057Z,89.77
2018-12-12T06:48:02.165Z,89.92
2018-12-12T06:49:02.169Z,89.94
2018-12-12T06:50:02.090Z,89.72
2018-12-12T06:51:02.055Z,89.61
2018-12-12T06:52:02.087Z,89.16
2018-12-12T06:53:02.043Z,89.22
2018-12-12T06:54:05.158Z,89.29
2018-12-12T06:55:02.188Z,89.4
2018-12-12T06:56:02.083Z,89.43
2018-12-12T06:57:02.022Z,89.41
2018-12-12T06:58:02.276Z,89.36
2018-12-12T06:59:02.294Z,89.2
2018-12-12T07:00:02.069Z,89.26
2018-12-12T07:01:02.281Z,89.49
2018-12-12T07:02:02.157Z,89.42
2018-12-12T07:03:02.228Z,89.69
2018-12-12T07:04:02.053Z,89.6
2018-12-12T07:05:02.020Z,89.68
2018-12-12T07:06:01.979Z,89.49
2018-12-12T07:07:02.265Z,89.55
2018-12-12T07:08:02.264Z,89.48
2018-12-12T07:09:02.156Z,89.47
2018-12-12T07:10:02.122Z,89.48
2018-12-12T07:11:02.274Z,89.45
2018-12-12T07:12:02.014Z,89.32
2018-12-12T07:13:02.234Z,89.57
2018-12-12T07:14:02.188Z,89.6
2018-12-12T07:15:01.995Z,89.42
2018-12-12T07:16:02.094Z,89.49
2018-12-12T07:17:02.241Z,89.46
2018-12-12T07:18:02.116Z,89.42
2018-12-12T07:19:01.992Z,89.52
2018-12-12T07:20:02.091Z,89.54
2018-12-12T07:21:02.353Z,89.44
2018-12-12T07:22:02.555Z,89.47
2018-12-12T07:23:01.963Z,89.43
2018-12-12T07:24:01.982Z,89.42
2018-12-12T07:25:02.025Z,89.44
2018-12-12T07:26:02.227Z,89.53
2018-12-12T07:27:01.976Z,89.71
2018-12-12T07:28:02.452Z,89.62
2018-12-12T07:29:02.274Z,89.64
2018-12-12T07:30:02.157Z,89.78
2018-12-12T07:31:02.006Z,89.73
2018-12-12T07:32:02.159Z,89.54
2018-12-12T07:33:02.249Z,89.46
2018-12-12T07:34:02.159Z,89.44
2018-12-12T07:35:01.955Z,89.46
2018-12-12T07:36:02.265Z,89.49
2018-12-12T07:37:02.790Z,89.58
2018-12-12T07:38:02.016Z,89.84
2018-12-12T07:39:02.085Z,89.78
2018-12-12T07:40:02.352Z,90.01
2018-12-12T07:41:01.966Z,90.07
2018-12-12T07:42:02.061Z,90.16
2018-12-12T07:43:01.920Z,90.43
2018-12-12T07:44:02.064Z,90.17
2018-12-12T07:45:02.056Z,90.08
2018-12-12T07:46:02.398Z,90.66
2018-12-12T07:47:02.751Z,90.58
2018-12-12T07:48:01.908Z,90.75
2018-12-12T07:49:02.759Z,91.2
2018-12-12T07:50:02.140Z,91.45
2018-12-12T07:51:02.287Z,91.18
2018-12-12T07:52:02.042Z,91.24
2018-12-12T07:53:02.338Z,91.37
2018-12-12T07:54:02.076Z,92.13
2018-12-12T07:55:01.982Z,92.08
2018-12-12T07:56:02.221Z,92.33
2018-12-12T07:57:02.032Z,92.34
2018-12-12T07:58:01.938Z,92.15
2018-12-12T07:59:02.113Z,92.24
2018-12-12T08:00:02.324Z,92.11
2018-12-12T08:01:02.644Z,92.19
2018-12-12T08:02:02.199Z,92.15
2018-12-12T08:03:05.592Z,92.33
2018-12-12T08:04:02.073Z,92.39
2018-12-12T08:05:02.317Z,92.67
2018-12-12T08:06:01.955Z,92.22
2018-12-12T08:07:02.051Z,92.33
2018-12-12T08:08:02.107Z,92
2018-12-12T08:09:01.943Z,92.29
2018-12-12T08:10:01.965Z,92.05
2018-12-12T08:11:02.093Z,91.97
2018-12-12T08:12:01.954Z,92.46
2018-12-12T08:13:02.200Z,92.47
2018-12-12T08:14:02.039Z,91.96
2018-12-12T08:15:02.508Z,92.19
2018-12-12T08:16:02.466Z,92.35
2018-12-12T08:17:01.889Z,92.2
2018-12-12T08:18:02.100Z,92.2
2018-12-12T08:19:02.227Z,92.07
2018-12-12T08:20:02.031Z,92
2018-12-12T08:21:01.887Z,92.12
2018-12-12T08:22:02.192Z,91.82
2018-12-12T08:23:02.267Z,91.64
2018-12-12T08:24:02.724Z,91.65
2018-12-12T08:25:02.082Z,91.46
2018-12-12T08:26:02.094Z,91.49
2018-12-12T08:27:01.932Z,91.44
2018-12-12T08:28:02.267Z,91.22
2018-12-12T08:29:01.904Z,91.24
2018-12-12T08:30:02.269Z,91.19
2018-12-12T08:31:02.378Z,91.28
2018-12-12T08:32:02.182Z,91.03
2018-12-12T08:33:01.918Z,91.15
2018-12-12T08:34:01.910Z,91
2018-12-12T08:35:01.956Z,91.04
2018-12-12T08:36:01.947Z,90.89
2018-12-12T08:37:02.407Z,90.78
2018-12-12T08:38:01.857Z,90.94
2018-12-12T08:39:02.377Z,90.89
2018-12-12T08:40:02.004Z,90.98
2018-12-12T08:41:02.338Z,90.98
2018-12-12T08:42:01.946Z,90.73
2018-12-12T08:43:02.706Z,90.66
2018-12-12T08:44:02.010Z,90.68
2018-12-12T08:45:01.939Z,90.68
2018-12-12T08:46:01.943Z,90.64
2018-12-12T08:47:01.973Z,90.73
2018-12-12T08:48:02.177Z,90.78
2018-12-12T08:49:01.899Z,90.68
2018-12-12T08:50:02.073Z,90.43
2018-12-12T08:51:01.973Z,90.56
2018-12-12T08:52:01.909Z,90.6
2018-12-12T08:53:02.022Z,90.7
2018-12-12T08:54:02.120Z,90.83
2018-12-12T08:55:02.651Z,90.62
2018-12-12T08:56:02.896Z,90.52
2018-12-12T08:57:02.145Z,90.55
2018-12-12T08:58:01.953Z,90.41
2018-12-12T08:59:02.031Z,90.66
2018-12-12T09:00:01.988Z,90.61
2018-12-12T09:01:02.184Z,90.51
2018-12-12T09:02:02.031Z,90.45
2018-12-12T09:03:03.341Z,90.32
2018-12-12T09:04:02.122Z,90.2
2018-12-12T09:05:02.054Z,90.66
2018-12-12T09:06:01.832Z,90.73
2018-12-12T09:07:01.863Z,90.56
2018-12-12T09:08:02.126Z,90.47
2018-12-12T09:09:01.898Z,90.44
2018-12-12T09:10:01.877Z,90.86
2018-12-12T09:11:01.982Z,90.53
2018-12-12T09:12:02.383Z,90.79
2018-12-12T09:13:02.689Z,90.65
2018-12-12T09:14:02.018Z,90.49
2018-12-12T09:15:02.038Z,90.65
2018-12-12T09:16:02.002Z,90.5
2018-12-12T09:17:02.055Z,90.94
2018-12-12T09:18:02.200Z,91.02
2018-12-12T09:19:01.965Z,91.23
2018-12-12T09:20:02.181Z,90.45
2018-12-12T09:21:02.019Z,91.01
2018-12-12T09:22:01.795Z,90.47
2018-12-12T09:23:01.865Z,90.55
2018-12-12T09:24:01.978Z,90.77
2018-12-12T09:25:02.190Z,90.47
2018-12-12T09:26:02.181Z,90.41
2018-12-12T09:27:01.953Z,90.25
2018-12-12T09:28:01.988Z,90.45
2018-12-12T09:29:02.181Z,90.97
2018-12-12T09:30:02.218Z,90.68
2018-12-12T09:31:01.897Z,90.97
2018-12-12T09:32:01.880Z,90.86
2018-12-12T09:33:02.127Z,90.73
2018-12-12T09:34:02.068Z,90.97
2018-12-12T09:35:01.822Z,90.84
2018-12-12T09:36:01.992Z,90.63
2018-12-12T09:37:02.134Z,91.02
2018-12-12T09:38:02.010Z,91.19
2018-12-12T09:39:02.171Z,91.49
2018-12-12T09:40:01.866Z,91.07
2018-12-12T09:41:01.774Z,90.71
2018-12-12T09:42:02.164Z,90.66
2018-12-12T09:43:02.067Z,90.61
2018-12-12T09:44:01.952Z,91.4
2018-12-12T09:45:01.983Z,91.57
2018-12-12T09:46:01.925Z,91.85
2018-12-12T09:47:02.171Z,91.66
2018-12-12T09:48:02.199Z,91.61
2018-12-12T09:49:01.934Z,91.72
2018-12-12T09:50:01.908Z,91.4
2018-12-12T09:51:06.973Z,91.89
2018-12-12T09:52:01.870Z,92.03
2018-12-12T09:53:01.886Z,91.7
2018-12-12T09:54:01.767Z,92.06
2018-12-12T09:55:02.053Z,92.33
2018-12-12T09:56:02.185Z,92.51
2018-12-12T09:57:02.026Z,92.15
2018-12-12T09:58:01.808Z,92.19
2018-12-12T09:59:01.869Z,92.15
2018-12-12T10:00:01.873Z,92.02
2018-12-12T10:01:01.757Z,92.22
2018-12-12T10:02:01.965Z,91.85
2018-12-12T10:03:01.895Z,92.04
2018-12-12T10:04:01.715Z,91.94
2018-12-12T10:05:02.007Z,91.82
2018-12-12T10:06:01.911Z,91.76
2018-12-12T10:07:01.759Z,91.8
2018-12-12T10:08:01.753Z,91.4
2018-12-12T10:09:01.714Z,91.51
2018-12-12T10:10:01.863Z,91.46
2018-12-12T10:11:01.913Z,91.33
2018-12-12T10:12:01.970Z,91.07
2018-12-12T10:13:01.894Z,91.01
2018-12-12T10:14:01.714Z,91.26
2018-12-12T10:15:01.747Z,91.04
2018-12-12T10:16:01.742Z,91.36
2018-12-12T10:17:01.897Z,91.47
2018-12-12T10:18:02.096Z,91.53
2018-12-12T10:19:01.914Z,91.46
2018-12-12T10:20:02.025Z,91.24
2018-12-12T10:21:02.101Z,91.64
2018-12-12T10:22:02.132Z,91.78
2018-12-12T10:23:01.867Z,92.09
2018-12-12T10:24:02.145Z,91.41
2018-12-12T10:25:01.973Z,91.41
2018-12-12T10:26:02.269Z,91.22
2018-12-12T10:27:01.990Z,91.13
2018-12-12T10:28:01.887Z,90.98
2018-12-12T10:29:02.533Z,91.17
2018-12-12T10:30:01.921Z,91.54
2018-12-12T10:31:01.886Z,91.25
2018-12-12T10:32:01.749Z,91.17
2018-12-12T10:33:02.027Z,91.05
2018-12-12T10:34:02.554Z,90.98
2018-12-12T10:35:01.876Z,91.07
2018-12-12T10:36:01.987Z,91.23
2018-12-12T10:37:01.725Z,91.62
2018-12-12T10:38:02.522Z,91.39
2018-12-12T10:39:01.909Z,91.33
2018-12-12T10:40:02.192Z,91.29
2018-12-12T10:41:02.204Z,91.16
2018-12-12T10:42:02.023Z,91.13
2018-12-12T10:43:01.708Z,91.17
2018-12-12T10:44:01.728Z,91.15
2018-12-12T10:45:02.098Z,90.87
2018-12-12T10:46:02.221Z,91.27
2018-12-12T10:47:01.797Z,91.27
2018-12-12T10:48:01.823Z,90.68
2018-12-12T10:49:01.954Z,90.74
2018-12-12T10:50:01.795Z,90.58
2018-12-12T10:51:01.660Z,90.44
2018-12-12T10:52:01.682Z,90.53
2018-12-12T10:53:02.090Z,90.57
2018-12-12T10:54:02.175Z,90.66
2018-12-12T10:55:01.915Z,91.06
2018-12-12T10:56:02.163Z,90.88
2018-12-12T10:57:01.977Z,90.87
2018-12-12T10:58:02.291Z,90.98
2018-12-12T10:59:01.673Z,90.54
2018-12-12T11:00:01.933Z,90.76
2018-12-12T11:01:01.847Z,90.84
2018-12-12T11:02:01.688Z,90.84
2018-12-12T11:03:02.030Z,90.89
2018-12-12T11:04:01.852Z,90.78
2018-12-12T11:05:01.679Z,90.09
2018-12-12T11:06:01.944Z,90.06
2018-12-12T11:07:02.068Z,89.98
2018-12-12T11:08:01.958Z,90.32
2018-12-12T11:09:01.639Z,90.2
2018-12-12T11:10:01.729Z,90.29
2018-12-12T11:11:01.929Z,89.6
2018-12-12T11:12:02.070Z,88.95
2018-12-12T11:13:02.010Z,88.84
2018-12-12T11:14:01.657Z,88.89
2018-12-12T11:15:01.708Z,89.13
2018-12-12T11:16:01.612Z,88.9
2018-12-12T11:17:01.976Z,88.49
2018-12-12T11:18:01.948Z,89.08
2018-12-12T11:19:02.413Z,89.1
2018-12-12T11:20:01.800Z,88.78
2018-12-12T11:21:03.463Z,88.82
2018-12-12T11:22:04.225Z,88.7
2018-12-12T11:23:01.806Z,88.79
2018-12-12T11:24:04.407Z,89.11
2018-12-12T11:25:01.890Z,88.52
2018-12-12T11:26:01.889Z,88.89
2018-12-12T11:27:01.720Z,88.85
2018-12-12T11:28:01.626Z,88.49
2018-12-12T11:29:01.757Z,88.58
2018-12-12T11:30:01.640Z,88.81
2018-12-12T11:31:01.972Z,88.31
2018-12-12T11:32:01.668Z,88.3
2018-12-12T11:33:02.925Z,87.93
2018-12-12T11:34:01.630Z,88.09
2018-12-12T11:35:02.441Z,88.43
2018-12-12T11:36:01.647Z,87.87
2018-12-12T11:37:01.608Z,88.19
2018-12-12T11:38:01.659Z,87.42
2018-12-12T11:39:01.649Z,86.75
2018-12-12T11:40:01.859Z,86.65
2018-12-12T11:41:01.885Z,85.92
2018-12-12T11:42:01.600Z,86.3
2018-12-12T11:43:02.050Z,86.15
2018-12-12T11:44:01.604Z,86.51
2018-12-12T11:45:01.744Z,86.02
2018-12-12T11:46:01.749Z,85.95
2018-12-12T11:47:01.590Z,86.18
2018-12-12T11:48:01.601Z,86.08
2018-12-12T11:49:01.635Z,86.24
2018-12-12T11:50:01.920Z,85.93
2018-12-12T11:51:01.970Z,85.38
2018-12-12T11:52:01.674Z,85.62
2018-12-12T11:53:02.568Z,85.62
2018-12-12T11:54:01.589Z,86.93
2018-12-12T11:55:01.659Z,85.93
2018-12-12T11:56:01.720Z,86.48
2018-12-12T11:57:01.560Z,85.83
2018-12-12T11:58:01.908Z,85.78
2018-12-12T11:59:02.405Z,85.46
2018-12-12T12:00:02.060Z,84.52
2018-12-12T12:01:01.673Z,86.12
2018-12-12T12:02:01.729Z,86.64
2018-12-12T12:03:01.633Z,86.52
2018-12-12T12:04:01.608Z,85.89
2018-12-12T12:05:01.815Z,86.57
2018-12-12T12:06:01.989Z,86.34
2018-12-12T12:07:01.678Z,86.59
2018-12-12T12:08:01.717Z,86.1
2018-12-12T12:09:01.878Z,86.06
2018-12-12T12:10:01.783Z,85.46
2018-12-12T12:11:01.621Z,86.29
2018-12-12T12:12:01.813Z,85.99
2018-12-12T12:13:02.387Z,85.08
2018-12-12T12:14:02.067Z,85.38
2018-12-12T12:15:01.648Z,85.38
2018-12-12T12:16:01.624Z,86
2018-12-12T12:17:01.555Z,86.09
2018-12-12T12:18:01.714Z,86.13
2018-12-12T12:19:01.603Z,85.84
2018-12-12T12:20:01.651Z,85.89
2018-12-12T12:21:01.821Z,85.16
2018-12-12T12:22:01.713Z,85.68
2018-12-12T12:23:01.662Z,85.4
2018-12-12T12:24:01.619Z,85.43
2018-12-12T12:25:01.556Z,85.35
2018-12-12T12:26:01.752Z,85.1
2018-12-12T12:27:01.617Z,84.88
2018-12-12T12:28:01.647Z,84.74
2018-12-12T12:29:01.907Z,84.39
2018-12-12T12:30:01.689Z,84.61
2018-12-12T12:31:01.565Z,84.86
2018-12-12T12:32:01.700Z,85.13
2018-12-12T12:33:01.802Z,85.19
2018-12-12T12:34:03.288Z,85.65
2018-12-12T12:35:01.550Z,85.72
2018-12-12T12:36:01.542Z,85.71
2018-12-12T12:37:02.405Z,85.63
2018-12-12T12:38:01.668Z,85.83
2018-12-12T12:39:01.679Z,85.51
2018-12-12T12:40:01.579Z,85.8
2018-12-12T12:41:01.534Z,85.79
2018-12-12T12:42:01.601Z,85.77
2018-12-12T12:43:01.498Z,86.07
2018-12-12T12:44:01.755Z,85.75
2018-12-12T12:45:01.515Z,85.49
2018-12-12T12:46:01.868Z,85.52
2018-12-12T12:47:01.498Z,85.68
2018-12-12T12:48:01.708Z,85.22
2018-12-12T12:49:01.695Z,85.38
2018-12-12T12:50:01.748Z,85.52
2018-12-12T12:51:02.446Z,85.54
2018-12-12T12:52:01.501Z,85.02
2018-12-12T12:53:02.196Z,85.45
2018-12-12T12:54:01.754Z,84.9
2018-12-12T12:55:01.580Z,85.4